Terminal Aerodrome Forecast
Issued by NWS Lubbock, TX

Home | Current Version | Previous Version | Text Only | Print | Product List | Glossary On
Versions: 1 2 3 4 5 6 7 8 9 10 11 12 13 14 15 16 17 18 19 20 21 22 23 24 25
000
FTUS44 KLUB 291358 AAA
TAFLBB
TAF AMD
KLBB 291358Z 2914/3012 VRB05KT 1SM BR OVC002
     FM291500 VRB05KT P6SM FEW015 SCT250
     FM292200 07009KT P6SM BKN050 PROB30 3005/3011 5SM -TSRA BR
      BKN015CB=

USA.gov is the U.S. government's official web portal to all federal, state and local government web resources and services.